createdAt,value
2022-11-25T00:01:12.308Z,6.45
2022-11-25T00:03:40.235Z,5.88
2022-11-25T00:06:16.450Z,5.15
2022-11-25T00:08:45.018Z,5.20
2022-11-25T00:11:13.337Z,5.80
2022-11-25T00:13:40.756Z,5.95
2022-11-25T00:16:13.055Z,4.68
2022-11-25T00:21:12.068Z,4.38
2022-11-25T00:23:39.511Z,4.40
2022-11-25T00:26:14.195Z,4.72
2022-11-25T00:28:43.489Z,4.45
2022-11-25T00:31:30.589Z,3.42
2022-11-25T00:33:57.928Z,4.88
2022-11-25T00:36:31.949Z,6.22
2022-11-25T00:39:06.028Z,8.00
2022-11-25T00:41:51.870Z,3.70
2022-11-25T00:44:40.375Z,3.45
2022-11-25T00:47:14.978Z,3.80
2022-11-25T00:49:44.123Z,3.97
2022-11-25T00:52:14.668Z,3.58
2022-11-25T00:54:41.598Z,3.38
2022-11-25T00:57:08.478Z,3.63
2022-11-25T00:59:35.254Z,4.03
2022-11-25T01:02:02.168Z,4.70
2022-11-25T01:04:29.266Z,4.60
2022-11-25T01:06:56.883Z,4.32
2022-11-25T01:09:23.809Z,4.32
2022-11-25T01:11:51.617Z,4.45
2022-11-25T01:14:19.444Z,4.00
2022-11-25T01:16:46.348Z,4.07
2022-11-25T01:19:13.416Z,3.75
2022-11-25T01:21:40.829Z,3.95
2022-11-25T01:24:08.532Z,3.78
2022-11-25T01:26:36.283Z,4.18
2022-11-25T01:29:06.005Z,3.88
2022-11-25T01:31:35.674Z,4.25
2022-11-25T01:34:06.249Z,3.28
2022-11-25T01:36:34.281Z,3.47
2022-11-25T01:39:01.600Z,3.10
2022-11-25T01:41:31.448Z,3.75
2022-11-25T01:44:16.778Z,3.55
2022-11-25T01:46:56.227Z,4.30
2022-11-25T01:49:34.738Z,4.60
2022-11-25T01:52:16.946Z,4.13
2022-11-25T01:54:58.864Z,4.28
2022-11-25T01:57:33.312Z,4.82
2022-11-25T02:00:04.555Z,4.68
2022-11-25T02:02:32.119Z,5.63
2022-11-25T02:05:01.516Z,6.07
2022-11-25T02:07:33.501Z,5.97
2022-11-25T02:10:02.745Z,9.82
2022-11-25T02:12:30.693Z,9.52
2022-11-25T02:14:59.541Z,10.23
2022-11-25T02:17:26.433Z,10.77
2022-11-25T02:20:04.687Z,9.90
2022-11-25T02:22:46.329Z,7.88
2022-11-25T02:25:20.603Z,7.05
2022-11-25T02:27:52.874Z,7.90
2022-11-25T02:32:47.979Z,7.80
2022-11-25T02:35:30.078Z,8.60
2022-11-25T02:38:03.706Z,8.73
2022-11-25T02:40:31.127Z,8.27
2022-11-25T02:43:00.835Z,8.38
2022-11-25T02:45:39.529Z,8.57
2022-11-25T02:48:06.326Z,8.57
2022-11-25T02:50:33.192Z,9.13
2022-11-25T02:52:59.976Z,9.82
2022-11-25T02:55:26.756Z,10.65
2022-11-25T02:57:53.587Z,9.20
2022-11-25T03:00:20.628Z,9.85
2022-11-25T03:02:48.414Z,9.35
2022-11-25T03:05:15.414Z,9.52
2022-11-25T03:07:42.284Z,9.05
2022-11-25T03:10:09.483Z,9.80
2022-11-25T03:12:36.298Z,10.18
2022-11-25T03:15:03.399Z,10.35
2022-11-25T03:17:30.199Z,8.88
2022-11-25T03:19:57.044Z,10.35
2022-11-25T03:22:23.984Z,11.23
2022-11-25T03:24:50.821Z,11.32
2022-11-25T03:27:18.078Z,10.70
2022-11-25T03:29:44.927Z,11.20
2022-11-25T03:32:11.845Z,11.30
2022-11-25T03:34:38.869Z,11.05
2022-11-25T03:37:05.890Z,10.82
2022-11-25T03:39:32.897Z,11.40
2022-11-25T03:41:59.703Z,12.82
2022-11-25T03:44:26.541Z,12.50
2022-11-25T03:46:53.380Z,12.48
2022-11-25T03:49:21.848Z,13.10
2022-11-25T03:51:49.432Z,14.93
2022-11-25T03:54:16.258Z,12.25
2022-11-25T03:56:43.148Z,12.48
2022-11-25T03:59:10.077Z,13.15
2022-11-25T04:01:41.493Z,13.13
2022-11-25T04:04:10.900Z,14.07
2022-11-25T04:06:39.378Z,13.32
2022-11-25T04:09:11.967Z,13.45
2022-11-25T04:11:57.302Z,13.05
2022-11-25T04:14:24.074Z,14.60
2022-11-25T04:16:51.075Z,15.02
2022-11-25T04:19:17.901Z,15.43
2022-11-25T04:21:49.319Z,13.73
2022-11-25T04:24:19.196Z,14.40
2022-11-25T04:26:46.051Z,13.63
2022-11-25T04:29:12.889Z,14.70
2022-11-25T04:31:39.659Z,15.25
2022-11-25T04:34:06.443Z,16.05
2022-11-25T04:36:33.285Z,16.23
2022-11-25T04:39:00.093Z,16.00
2022-11-25T04:41:26.868Z,14.73
2022-11-25T04:43:53.608Z,14.25
2022-11-25T04:46:23.659Z,15.20
2022-11-25T04:48:50.573Z,15.63
2022-11-25T04:51:17.428Z,15.02
2022-11-25T04:53:45.631Z,14.32
2022-11-25T04:56:18.675Z,14.20
2022-11-25T04:59:04.184Z,14.13
2022-11-25T05:01:31.153Z,12.18
2022-11-25T05:03:58.083Z,12.07
2022-11-25T05:06:25.082Z,12.23
2022-11-25T05:08:51.926Z,12.93
2022-11-25T05:11:18.871Z,12.40
2022-11-25T05:13:45.709Z,12.82
2022-11-25T05:16:12.716Z,13.13
2022-11-25T05:18:41.213Z,11.95
2022-11-25T05:21:08.042Z,12.73
2022-11-25T05:23:34.956Z,11.82
2022-11-25T05:26:04.336Z,12.38
2022-11-25T05:28:31.712Z,12.90
2022-11-25T05:30:58.603Z,13.45
2022-11-25T05:33:25.544Z,13.93
2022-11-25T05:35:57.709Z,11.63
2022-11-25T05:38:24.735Z,11.85
2022-11-25T05:40:51.656Z,12.02
2022-11-25T05:43:18.800Z,13.80
2022-11-25T05:45:46.045Z,12.52
2022-11-25T05:48:12.903Z,12.60
2022-11-25T05:50:39.736Z,11.45
2022-11-25T05:53:06.754Z,11.57
2022-11-25T05:55:34.183Z,11.90
2022-11-25T05:58:01.211Z,11.63
2022-11-25T06:00:28.057Z,11.18
2022-11-25T06:02:55.145Z,10.45
2022-11-25T06:05:22.298Z,9.40
2022-11-25T06:07:49.387Z,10.00
2022-11-25T06:10:17.912Z,9.80
2022-11-25T06:12:44.860Z,9.98
2022-11-25T06:15:12.416Z,11.93
2022-11-25T06:17:39.348Z,10.88
2022-11-25T06:20:09.056Z,21.00
2022-11-25T06:22:36.017Z,9.27
2022-11-25T06:25:04.821Z,10.32
2022-11-25T06:27:57.007Z,11.63
2022-11-25T06:30:19.937Z,11.68
2022-11-25T06:32:46.987Z,13.45
2022-11-25T06:35:14.421Z,9.68
2022-11-25T06:37:41.592Z,10.40
2022-11-25T06:40:09.222Z,10.57
2022-11-25T06:42:38.667Z,9.98
2022-11-25T06:45:06.780Z,9.32
2022-11-25T06:47:33.570Z,11.05
2022-11-25T06:50:00.362Z,8.50
2022-11-25T06:52:30.231Z,6.45
2022-11-25T06:54:57.053Z,7.00
2022-11-25T06:57:24.068Z,5.90
2022-11-25T06:59:51.629Z,5.97
2022-11-25T07:02:18.816Z,6.13
2022-11-25T07:04:53.391Z,5.90
2022-11-25T07:07:20.552Z,7.45
2022-11-25T07:09:47.792Z,8.25
2022-11-25T07:12:14.707Z,6.30
2022-11-25T07:14:41.790Z,5.72
2022-11-25T07:17:11.924Z,5.78
2022-11-25T07:19:39.368Z,6.07
2022-11-25T07:22:06.116Z,6.32
2022-11-25T07:24:34.662Z,7.03
2022-11-25T07:27:01.911Z,7.65
2022-11-25T07:29:51.945Z,7.68
2022-11-25T07:32:17.511Z,6.93
2022-11-25T07:34:44.462Z,6.30
2022-11-25T07:37:11.354Z,7.25
2022-11-25T07:39:38.464Z,6.78
2022-11-25T07:42:05.634Z,6.72
2022-11-25T07:44:32.488Z,5.82
2022-11-25T07:46:59.291Z,6.80
2022-11-25T07:49:26.543Z,6.88
2022-11-25T07:51:56.749Z,7.50
2022-11-25T07:54:25.000Z,6.57
2022-11-25T07:56:52.140Z,7.68
2022-11-25T07:59:23.615Z,7.53
2022-11-25T08:01:55.707Z,7.88
2022-11-25T08:04:24.016Z,8.85
2022-11-25T08:06:52.475Z,8.18
2022-11-25T08:09:25.299Z,8.57
2022-11-25T08:11:53.909Z,8.13
2022-11-25T08:14:21.181Z,8.73
2022-11-25T08:16:49.079Z,8.35
2022-11-25T08:19:17.550Z,9.38
2022-11-25T08:21:45.056Z,10.82
2022-11-25T08:24:20.696Z,10.18
2022-11-25T08:26:49.144Z,11.13
2022-11-25T08:29:18.879Z,10.07
2022-11-25T08:31:45.953Z,10.40
2022-11-25T08:34:22.528Z,10.75
2022-11-25T08:36:49.450Z,8.88
2022-11-25T08:39:44.231Z,10.48
2022-11-25T08:42:06.125Z,10.95
2022-11-25T08:44:33.059Z,10.90
2022-11-25T08:46:59.937Z,10.63
2022-11-25T08:49:29.302Z,10.57
2022-11-25T08:52:09.083Z,10.18
2022-11-25T08:54:35.943Z,11.02
2022-11-25T08:57:02.846Z,15.98
2022-11-25T08:59:29.646Z,14.52
2022-11-25T09:01:56.668Z,14.90
2022-11-25T09:04:23.435Z,15.23
2022-11-25T09:06:50.435Z,15.65
2022-11-25T09:09:19.679Z,15.65
2022-11-25T09:11:46.530Z,16.75
2022-11-25T09:14:13.932Z,17.15
2022-11-25T09:16:41.346Z,16.77
2022-11-25T09:19:08.263Z,16.83
2022-11-25T09:21:35.092Z,17.65
2022-11-25T09:24:02.307Z,17.08
2022-11-25T09:26:31.545Z,17.52
2022-11-25T09:29:01.469Z,17.63
2022-11-25T09:31:28.469Z,19.90
2022-11-25T09:33:56.591Z,17.92
2022-11-25T09:36:24.370Z,18.48
2022-11-25T09:38:51.801Z,17.67
2022-11-25T09:41:52.848Z,18.17
2022-11-25T09:44:56.416Z,16.65
2022-11-25T09:47:48.324Z,17.23
2022-11-25T09:52:52.054Z,16.75
2022-11-25T09:55:23.986Z,16.30
2022-11-25T09:58:19.969Z,16.65
2022-11-25T10:00:50.109Z,17.65
2022-11-25T10:03:16.916Z,18.35
2022-11-25T10:05:52.969Z,16.33
2022-11-25T10:08:25.268Z,16.70
2022-11-25T10:13:35.165Z,17.00
2022-11-25T10:16:05.665Z,15.65
2022-11-25T10:18:41.382Z,15.63
2022-11-25T10:21:10.404Z,16.38
2022-11-25T10:23:42.274Z,16.13
2022-11-25T10:26:14.928Z,15.45
2022-11-25T10:28:55.961Z,16.52
2022-11-25T10:31:35.162Z,16.08
2022-11-25T10:34:16.455Z,16.45
2022-11-25T10:36:44.203Z,16.77
2022-11-25T10:39:24.353Z,16.85
2022-11-25T10:41:58.953Z,16.75
2022-11-25T10:44:32.063Z,16.58
2022-11-25T10:47:14.083Z,15.68
2022-11-25T10:53:02.568Z,13.07
2022-11-25T10:55:32.311Z,14.15
2022-11-25T10:58:04.229Z,13.40
2022-11-25T11:00:37.738Z,14.90
2022-11-25T11:03:25.864Z,14.65
2022-11-25T11:05:55.492Z,12.77
2022-11-25T11:08:29.725Z,12.80
2022-11-25T11:11:20.961Z,12.60
2022-11-25T11:13:49.173Z,16.50
2022-11-25T11:16:52.340Z,11.82
2022-11-25T11:19:28.117Z,11.07
2022-11-25T11:21:58.166Z,12.15
2022-11-25T11:24:38.478Z,13.35
2022-11-25T11:27:07.900Z,12.65
2022-11-25T11:29:35.223Z,12.85
2022-11-25T11:32:05.884Z,12.80
2022-11-25T11:35:04.227Z,13.73
2022-11-25T11:37:53.235Z,12.10
2022-11-25T11:40:37.390Z,12.27
2022-11-25T11:43:24.757Z,12.13
2022-11-25T11:46:10.433Z,11.27
2022-11-25T11:48:43.252Z,11.48
2022-11-25T11:51:46.442Z,11.68
2022-11-25T11:54:46.858Z,11.60
2022-11-25T12:00:20.587Z,10.98
2022-11-25T12:03:05.708Z,12.20
2022-11-25T12:05:39.826Z,11.35
2022-11-25T12:08:21.163Z,11.02
2022-11-25T12:10:54.320Z,11.35
2022-11-25T12:13:42.479Z,12.10
2022-11-25T12:16:30.455Z,13.32
2022-11-25T12:19:03.175Z,12.57
2022-11-25T12:21:55.018Z,13.00
2022-11-25T12:24:53.921Z,14.07
2022-11-25T12:27:36.362Z,12.40
2022-11-25T12:30:10.335Z,11.77
2022-11-25T12:32:50.788Z,12.65
2022-11-25T12:35:17.749Z,13.15
2022-11-25T12:38:10.750Z,12.90
2022-11-25T12:41:04.957Z,12.68
2022-11-25T12:43:50.788Z,13.02
2022-11-25T12:46:45.422Z,13.48
2022-11-25T12:49:40.966Z,13.25
2022-11-25T12:52:26.683Z,14.18
2022-11-25T12:55:05.922Z,13.45
2022-11-25T12:57:51.865Z,14.45
2022-11-25T13:00:47.190Z,14.05
2022-11-25T13:03:41.728Z,14.38
2022-11-25T13:06:39.662Z,15.15
2022-11-25T13:09:12.451Z,14.35
2022-11-25T13:12:32.072Z,14.77
2022-11-25T13:15:19.589Z,13.88
2022-11-25T13:17:55.261Z,12.77
2022-11-25T13:20:35.703Z,14.90
2022-11-25T13:23:05.802Z,14.45
2022-11-25T13:25:33.488Z,14.93
2022-11-25T13:28:06.057Z,13.60
2022-11-25T13:30:33.087Z,13.73
2022-11-25T13:33:12.024Z,14.20
2022-11-25T13:35:54.369Z,13.18
2022-11-25T13:41:23.794Z,12.65
2022-11-25T13:43:53.747Z,13.40
2022-11-25T13:46:46.151Z,11.88
2022-11-25T13:49:27.098Z,12.40
2022-11-25T13:51:58.480Z,13.20
2022-11-25T13:54:58.150Z,12.77
2022-11-25T13:57:28.581Z,12.68
2022-11-25T14:00:01.891Z,11.90
2022-11-25T14:02:28.878Z,11.48
2022-11-25T14:05:33.512Z,10.52
2022-11-25T14:08:20.402Z,9.90
2022-11-25T14:11:32.728Z,10.07
2022-11-25T14:14:19.328Z,9.88
2022-11-25T14:17:04.883Z,8.95
2022-11-25T14:19:54.913Z,8.88
2022-11-25T14:22:38.948Z,8.52
2022-11-25T14:25:30.509Z,8.63
2022-11-25T14:28:08.769Z,9.93
2022-11-25T14:30:53.165Z,9.30
2022-11-25T14:33:31.664Z,9.30
2022-11-25T14:36:22.045Z,8.65
2022-11-25T14:38:59.974Z,11.02
2022-11-25T14:42:14.010Z,9.15
2022-11-25T14:44:53.502Z,9.60
2022-11-25T14:47:27.699Z,9.35
2022-11-25T14:52:48.038Z,11.57
2022-11-25T14:55:29.415Z,11.20
2022-11-25T14:58:01.760Z,10.75
2022-11-25T15:00:29.736Z,11.55
2022-11-25T15:03:02.482Z,13.10
2022-11-25T15:05:34.584Z,14.77
2022-11-25T15:08:06.857Z,12.85
2022-11-25T15:13:38.938Z,16.33
2022-11-25T15:16:11.792Z,16.95
2022-11-25T15:18:43.541Z,20.13
2022-11-25T15:21:15.435Z,17.95
2022-11-25T15:23:42.445Z,19.27
2022-11-25T15:26:22.694Z,17.60
2022-11-25T15:29:10.172Z,15.35
2022-11-25T15:31:41.935Z,15.65
2022-11-25T15:34:14.198Z,15.65
2022-11-25T15:39:20.241Z,15.52
2022-11-25T15:42:21.809Z,17.02
2022-11-25T15:45:06.916Z,17.30
2022-11-25T15:47:35.774Z,17.55
2022-11-25T15:50:06.311Z,17.05
2022-11-25T15:52:40.219Z,17.80
2022-11-25T15:55:17.181Z,17.40
2022-11-25T15:57:49.059Z,17.52
2022-11-25T16:00:23.270Z,17.70
2022-11-25T16:02:57.314Z,16.98
2022-11-25T16:05:31.911Z,17.60
2022-11-25T16:08:02.310Z,18.90
2022-11-25T16:10:56.475Z,15.98
2022-11-25T16:13:24.178Z,15.50
2022-11-25T16:15:52.532Z,14.48
2022-11-25T16:18:39.925Z,14.20
2022-11-25T16:21:10.695Z,14.43
2022-11-25T16:23:41.914Z,14.70
2022-11-25T16:26:13.763Z,16.20
2022-11-25T16:28:54.426Z,14.98
2022-11-25T16:31:21.657Z,18.83
2022-11-25T16:33:53.119Z,19.20
2022-11-25T16:36:20.030Z,17.85
2022-11-25T16:38:53.480Z,18.17
2022-11-25T16:41:25.147Z,18.38
2022-11-25T16:43:52.813Z,18.70
2022-11-25T16:46:22.902Z,19.38
2022-11-25T16:48:52.074Z,17.48
2022-11-25T16:51:26.501Z,20.80
2022-11-25T16:53:57.974Z,22.35
2022-11-25T16:56:59.197Z,31.10
2022-11-25T16:59:41.586Z,19.90
2022-11-25T17:05:32.664Z,21.65
2022-11-25T17:07:59.697Z,22.17
2022-11-25T17:10:42.420Z,20.35
2022-11-25T17:13:18.291Z,19.60
2022-11-25T17:15:46.229Z,21.70
2022-11-25T17:18:18.772Z,24.05
2022-11-25T17:20:46.531Z,21.92
2022-11-25T17:23:16.158Z,20.50
2022-11-25T17:25:50.266Z,21.40
2022-11-25T17:28:20.050Z,23.45
2022-11-25T17:30:49.189Z,22.48
2022-11-25T17:33:21.699Z,22.48
2022-11-25T17:36:06.512Z,24.80
2022-11-25T17:38:38.485Z,24.58
2022-11-25T17:41:10.809Z,23.35
2022-11-25T17:46:13.403Z,25.38
2022-11-25T17:48:54.824Z,26.33
2022-11-25T17:51:33.841Z,23.88
2022-11-25T17:54:00.829Z,22.85
2022-11-25T17:56:32.628Z,25.58
2022-11-25T17:59:28.180Z,21.23
2022-11-25T18:04:58.594Z,24.48
2022-11-25T18:10:17.372Z,23.00
2022-11-25T18:12:58.770Z,24.85
2022-11-25T18:15:35.219Z,22.55
2022-11-25T18:26:33.098Z,23.67
2022-11-25T18:29:05.594Z,24.85
2022-11-25T18:31:33.074Z,21.80
2022-11-25T18:36:41.125Z,23.42
2022-11-25T18:39:08.050Z,21.38
2022-11-25T18:41:35.108Z,23.35
2022-11-25T18:44:05.951Z,28.35
2022-11-25T18:46:38.762Z,27.02
2022-11-25T18:49:13.710Z,27.08
2022-11-25T18:51:42.221Z,24.05
2022-11-25T18:54:10.482Z,23.70
2022-11-25T18:56:39.774Z,27.73
2022-11-25T18:59:11.474Z,27.55
2022-11-25T19:01:39.702Z,28.45
2022-11-25T19:04:06.834Z,26.08
2022-11-25T19:06:33.739Z,26.25
2022-11-25T19:12:15.390Z,28.00
2022-11-25T19:14:42.951Z,27.08
2022-11-25T19:17:20.156Z,24.65
2022-11-25T19:22:42.697Z,26.20
2022-11-25T19:25:11.033Z,28.58
2022-11-25T19:27:49.366Z,30.08
2022-11-25T19:33:03.303Z,24.40
2022-11-25T19:35:36.440Z,21.95
2022-11-25T19:38:18.089Z,23.90
2022-11-25T19:40:45.091Z,25.70
2022-11-25T19:43:11.986Z,23.40
2022-11-25T19:45:39.212Z,26.25
2022-11-25T19:48:11.486Z,28.77
2022-11-25T19:50:41.654Z,25.70
2022-11-25T19:53:23.385Z,24.15
2022-11-25T19:55:53.959Z,28.17
2022-11-25T19:58:26.188Z,27.67
2022-11-25T20:00:54.457Z,26.10
2022-11-25T20:03:29.410Z,28.25
2022-11-25T20:05:57.585Z,24.90
2022-11-25T20:08:27.999Z,26.00
2022-11-25T20:10:56.458Z,25.25
2022-11-25T20:13:47.598Z,26.98
2022-11-25T20:16:24.224Z,26.17
2022-11-25T20:21:37.815Z,26.65
2022-11-25T20:30:04.989Z,28.20
2022-11-25T20:32:34.732Z,24.55
2022-11-25T20:35:02.639Z,22.20
2022-11-25T20:37:31.565Z,22.58
2022-11-25T20:42:42.891Z,22.25
2022-11-25T20:50:43.594Z,23.60
2022-11-25T20:53:16.992Z,15.85
2022-11-25T20:55:44.694Z,18.48
2022-11-25T21:01:05.680Z,18.92
2022-11-25T21:06:29.183Z,20.42
2022-11-25T21:29:03.142Z,18.02
2022-11-25T21:31:37.504Z,18.17
2022-11-25T21:36:56.641Z,18.45
2022-11-25T21:42:03.037Z,19.45
2022-11-25T21:44:40.635Z,18.33
2022-11-25T21:50:49.604Z,16.48
2022-11-25T21:53:20.986Z,16.80
2022-11-25T21:58:49.733Z,17.48
2022-11-25T22:01:25.871Z,19.05
2022-11-25T22:03:53.910Z,17.73
2022-11-25T22:06:44.196Z,15.73
2022-11-25T22:11:53.944Z,16.73
2022-11-25T22:14:28.879Z,16.92
2022-11-25T22:17:01.980Z,13.73
2022-11-25T22:19:48.142Z,13.65
2022-11-25T22:22:18.726Z,12.02
2022-11-25T22:24:46.529Z,12.57
2022-11-25T22:27:22.419Z,12.00
2022-11-25T22:29:52.330Z,13.02
2022-11-25T22:32:19.780Z,9.43
2022-11-25T22:34:47.615Z,11.77
2022-11-25T22:37:20.812Z,12.43
2022-11-25T22:39:48.916Z,11.27
2022-11-25T22:42:27.850Z,9.65
2022-11-25T22:44:57.176Z,10.02
2022-11-25T22:47:43.834Z,10.48
2022-11-25T22:50:27.388Z,9.98
2022-11-25T22:52:55.358Z,9.50
2022-11-25T22:55:29.364Z,9.40
2022-11-25T22:57:58.634Z,10.27
2022-11-25T23:00:32.810Z,10.40
2022-11-25T23:03:02.566Z,10.15
2022-11-25T23:05:33.704Z,9.48
2022-11-25T23:08:03.044Z,9.27
2022-11-25T23:10:36.538Z,10.65
2022-11-25T23:13:04.026Z,9.20
2022-11-25T23:15:31.520Z,9.05
2022-11-25T23:18:00.792Z,10.98
2022-11-25T23:20:38.350Z,10.77
2022-11-25T23:23:17.670Z,13.02
2022-11-25T23:25:45.688Z,13.70
2022-11-25T23:28:13.015Z,12.18
2022-11-25T23:31:05.362Z,10.85
2022-11-25T23:36:14.117Z,12.68
2022-11-25T23:38:49.132Z,12.40
2022-11-25T23:41:20.044Z,12.80
2022-11-25T23:43:47.067Z,11.85
2022-11-25T23:46:15.369Z,11.60
2022-11-25T23:51:28.170Z,10.52
2022-11-25T23:53:56.863Z,9.38
2022-11-25T23:56:25.605Z,10.95
2022-11-25T23:58:52.429Z,9.52
